Time;durP1;ratioP1;P1;durP2;ratioP2;P2;SDS_P1;SDS_P2;PMS_P1;PMS_P2;Temp;Humidity;BMP_temperature;BMP_pressure;BME280_temperature;BME280_humidity;BME280_pressure;Samples;Min_cycle;Max_cycle;Signal;HPM_P1;HPM_P2
2022/06/08 00:00:58;;;;;;;;;19.00;19.00;;;;;21.73;82.19;98857.03;6273853;20;2828418;-49
2022/06/08 00:03:45;;;;;;;;;18.50;17.00;;;;;21.83;80.64;98861.19;6280107;20;2831497;-51
2022/06/08 00:06:17;;;;;;;;;18.00;18.00;;;;;21.90;81.05;98867.56;6281245;20;2837910;-47
2022/06/08 00:08:46;;;;;;;;;19.00;17.33;;;;;21.90;81.43;98864.84;6315854;20;3569128;-49
2022/06/08 00:11:17;;;;;;;;;20.00;20.00;;;;;21.78;82.11;98862.78;6279175;20;3573180;-52
2022/06/08 00:13:46;;;;;;;;;23.33;19.67;;;;;21.74;82.82;98861.44;6283211;20;3577348;-49
2022/06/08 00:16:16;;;;;;;;;20.00;19.00;;;;;21.58;82.86;98874.22;6280190;20;2829482;-51
2022/06/08 00:18:46;;;;;;;;;16.50;15.50;;;;;21.58;84.55;98871.50;6280832;20;2822192;-47
2022/06/08 00:21:15;;;;;;;;;19.67;18.00;;;;;21.66;83.71;98874.13;6283954;20;3562865;-52
2022/06/08 00:23:46;;;;;;;;;20.33;20.33;;;;;21.59;84.15;98884.13;6312095;20;3572230;-47
2022/06/08 00:26:16;;;;;;;;;18.33;18.33;;;;;21.20;85.77;98887.84;6314921;20;3555489;-47
2022/06/08 00:28:45;;;;;;;;;21.00;19.00;;;;;21.52;83.15;98891.38;6312160;20;2833628;-49
2022/06/08 00:31:13;;;;;;;;;20.67;19.33;;;;;21.50;82.59;98887.97;6280450;20;3574354;-54
2022/06/08 00:33:42;;;;;;;;;18.00;15.00;;;;;21.29;85.05;98896.81;6280447;20;2821132;-51
2022/06/08 00:36:11;;;;;;;;;20.33;19.67;;;;;21.57;83.85;98902.59;6283697;20;3564807;-48
2022/06/08 00:38:40;;;;;;;;;18.67;18.67;;;;;21.33;83.21;98902.75;6281241;20;3557604;-51
2022/06/08 00:41:52;;;;;;;;;19.00;18.00;;;;;21.30;88.58;98887.59;6271940;20;2830897;-47
2022/06/08 00:45:02;;;;;;;;;19.50;16.50;;;;;21.02;88.89;98879.94;6275526;20;2829493;-50
2022/06/08 00:47:44;;;;;;;;;18.50;18.50;;;;;20.90;94.62;98889.56;6274388;20;2836730;-50
2022/06/08 00:50:28;;;;;;;;;19.50;18.00;;;;;20.62;95.60;98881.06;6276286;20;2834673;-52
2022/06/08 00:52:59;;;;;;;;;19.67;17.33;;;;;20.64;94.88;98869.94;6281078;20;3579455;-52
2022/06/08 00:55:35;;;;;;;;;20.67;18.67;;;;;20.47;98.87;98874.63;6282044;20;3570025;-49
2022/06/08 00:58:29;;;;;;;;;20.33;20.33;;;;;20.27;100.00;98880.47;6278290;20;3562821;-52
2022/06/08 01:00:58;;;;;;;;;22.33;22.33;;;;;20.08;100.00;98908.16;6309210;20;3587721;-52
2022/06/08 01:03:28;;;;;;;;;21.50;18.00;;;;;20.15;100.00;98903.72;6280733;20;2837775;-53
2022/06/08 01:06:05;;;;;;;;;20.00;20.00;;;;;20.31;96.96;98881.00;6286123;20;3581554;-47
2022/06/08 01:08:50;;;;;;;;;21.00;20.00;;;;;20.42;97.37;98887.94;6280904;20;2829595;-46
2022/06/08 01:11:44;;;;;;;;;24.00;22.67;;;;;20.34;99.11;98892.38;6286929;20;3587717;-44
2022/06/08 01:14:19;;;;;;;;;26.67;24.67;;;;;20.20;100.00;98895.84;6282978;20;3598187;-45
2022/06/08 01:17:13;;;;;;;;;21.00;21.00;;;;;20.23;98.71;98886.47;6284395;20;2846147;-46
2022/06/08 01:19:47;;;;;;;;;22.33;22.33;;;;;20.19;100.00;98905.03;6317967;20;3587766;-46
2022/06/08 01:22:19;;;;;;;;;23.33;21.33;;;;;20.23;100.00;98889.22;6286743;20;3584663;-46
2022/06/08 01:24:52;;;;;;;;;22.33;18.67;;;;;20.46;99.28;98878.34;6281829;20;2832648;-47
2022/06/08 01:27:41;;;;;;;;;21.33;20.00;;;;;20.36;99.91;98873.97;6315760;20;3583582;-46
2022/06/08 01:30:51;;;;;;;;;22.00;21.00;;;;;20.35;99.79;98861.38;6286726;20;3573207;-46
2022/06/08 01:33:56;;;;;;;;;24.33;22.00;;;;;20.13;100.00;98859.41;6283916;20;3583831;-45
2022/06/08 01:36:56;;;;;;;;;24.67;22.67;;;;;20.11;100.00;98858.75;6285158;20;3582570;-45
2022/06/08 01:40:43;;;;;;;;;23.33;20.00;;;;;20.16;100.00;98878.13;6286393;20;3571531;-46
2022/06/08 01:43:44;;;;;;;;;23.00;22.67;;;;;20.26;100.00;98867.88;6279034;20;3565992;-44
2022/06/08 01:46:32;;;;;;;;;24.67;23.00;;;;;20.08;100.00;98883.63;6281920;20;3587821;-45
2022/06/08 01:49:35;;;;;;;;;23.33;22.00;;;;;20.15;100.00;98865.56;6317653;20;3581753;-44
2022/06/08 01:52:37;;;;;;;;;23.00;22.00;;;;;20.07;100.00;98851.97;6286960;20;3585644;-45
2022/06/08 01:55:26;;;;;;;;;28.67;26.33;;;;;20.12;100.00;98852.28;6286309;20;3593039;-43
2022/06/08 01:58:14;;;;;;;;;25.33;23.33;;;;;20.16;100.00;98845.44;6280542;20;3585661;-44
2022/06/08 02:00:54;;;;;;;;;26.00;24.33;;;;;20.18;100.00;98832.50;6313897;20;3596173;-43
2022/06/08 02:03:45;;;;;;;;;24.33;24.00;;;;;20.11;100.00;98834.22;6283564;20;3585642;-42
2022/06/08 02:06:31;;;;;;;;;25.33;24.33;;;;;20.01;100.00;98841.75;6284962;20;3586499;-47
2022/06/08 02:09:18;;;;;;;;;23.33;22.33;;;;;20.05;100.00;98840.38;6279002;20;3587883;-44
2022/06/08 02:12:07;;;;;;;;;27.33;26.00;;;;;19.90;100.00;98846.53;6280249;20;3585795;-43
2022/06/08 02:14:46;;;;;;;;;27.00;25.00;;;;;19.72;100.00;98848.63;6285601;20;3593037;-44
2022/06/08 02:17:42;;;;;;;;;33.33;27.67;;;;;19.66;100.00;98850.19;6280515;20;3612875;-43
2022/06/08 02:20:18;;;;;;;;;27.33;26.00;;;;;19.73;100.00;98840.28;6280464;20;3583717;-47
2022/06/08 02:23:08;;;;;;;;;24.67;24.67;;;;;19.89;100.00;98844.00;6282974;20;3600271;-47
2022/06/08 02:26:07;;;;;;;;;27.67;26.67;;;;;19.80;100.00;98845.03;6284386;20;3591923;-45
2022/06/08 02:29:17;;;;;;;;;32.00;29.67;;;;;19.82;100.00;98843.00;6280842;20;3612887;-45
2022/06/08 02:35:32;;;;;;;;;24.00;21.50;;;;;19.87;100.00;98860.50;6278054;20;2725379;-45
2022/06/08 02:38:10;;;;;;;;;25.33;24.00;;;;;19.80;100.00;98878.59;6312318;20;3579416;-45
2022/06/08 02:40:49;;;;;;;;;25.00;23.00;;;;;19.64;100.00;98884.03;6281720;20;3593980;-45
2022/06/08 02:43:34;;;;;;;;;25.00;25.00;;;;;19.94;100.00;98891.50;6281721;20;3584711;-44
2022/06/08 02:47:09;;;;;;;;;27.67;26.33;;;;;19.56;100.00;98920.28;6284017;20;3579386;-44
2022/06/08 02:49:39;;;;;;;;;28.00;28.00;;;;;19.63;100.00;98929.47;6282089;20;3582772;-46
2022/06/08 02:52:27;;;;;;;;;26.00;25.00;;;;;19.99;100.00;98937.31;6284248;20;3596199;-45
2022/06/08 02:54:57;;;;;;;;;30.33;30.00;;;;;19.98;100.00;98940.19;6282129;20;3586816;-45
2022/06/08 02:58:07;;;;;;;;;28.67;27.33;;;;;19.90;100.00;98939.16;6283428;20;3577183;-47
2022/06/08 03:00:52;;;;;;;;;25.33;25.33;;;;;20.00;100.00;98928.09;6282737;20;3594061;-45
2022/06/08 03:03:42;;;;;;;;;26.00;24.33;;;;;19.99;100.00;98928.28;6283600;20;3594025;-46
2022/06/08 03:06:21;;;;;;;;;25.50;23.50;;;;;20.04;100.00;98924.00;6283486;20;3478373;-45
2022/06/08 03:09:02;;;;;;;;;25.67;24.33;;;;;19.59;100.00;98919.09;6310836;20;3589957;-45
2022/06/08 03:11:43;;;;;;;;;25.33;25.33;;;;;20.00;100.00;98921.81;6282788;20;3595035;-46
2022/06/08 03:14:16;;;;;;;;;24.00;23.00;;;;;19.82;100.00;98925.56;6280761;20;3583564;-46
2022/06/08 03:17:07;;;;;;;;;23.67;21.33;;;;;20.04;100.00;98934.91;6283093;20;3585641;-48
2022/06/08 03:19:38;;;;;;;;;25.67;24.00;;;;;19.62;100.00;98937.84;6282583;20;3604521;-49
2022/06/08 03:22:07;;;;;;;;;23.67;23.00;;;;;19.38;100.00;98936.81;6278873;20;2848442;-53
2022/06/08 03:24:36;;;;;;;;;26.33;22.33;;;;;19.81;100.00;98923.88;6312367;20;3590906;-49
2022/06/08 03:27:08;;;;;;;;;26.00;24.00;;;;;19.78;100.00;98923.38;6281992;20;3593093;-60
2022/06/08 03:29:38;;;;;;;;;24.33;21.67;;;;;19.69;100.00;98922.53;6281324;20;3583592;-52
2022/06/08 03:32:08;;;;;;;;;20.00;20.00;;;;;19.43;100.00;98926.25;6278133;20;2846201;-50
2022/06/08 03:34:37;;;;;;;;;18.00;16.67;;;;;19.44;100.00;98933.41;6308402;20;3563820;-48
2022/06/08 03:37:06;;;;;;;;;23.67;23.33;;;;;19.42;100.00;98937.31;6312420;20;3585693;-53
2022/06/08 03:39:35;;;;;;;;;25.00;22.33;;;;;19.49;100.00;98941.91;6279670;20;3584656;-55
2022/06/08 03:42:05;;;;;;;;;21.33;19.33;;;;;19.66;100.00;98942.78;6279534;20;3568088;-54
2022/06/08 03:44:36;;;;;;;;;21.33;20.00;;;;;19.44;100.00;98955.19;6276542;20;2841975;-53
2022/06/08 03:47:16;;;;;;;;;22.33;22.33;;;;;19.40;100.00;98970.13;6310194;20;3580431;-54
2022/06/08 03:49:53;;;;;;;;;24.33;23.00;;;;;19.23;100.00;98968.44;6276851;20;2846329;-55
2022/06/08 03:52:30;;;;;;;;;25.67;23.00;;;;;19.46;100.00;98953.16;6314162;20;3581470;-54
2022/06/08 03:55:04;;;;;;;;;19.67;19.33;;;;;19.62;100.00;98952.28;6276859;20;2851531;-53
2022/06/08 03:57:34;;;;;;;;;23.33;21.33;;;;;19.68;100.00;98957.09;6312796;20;3585772;-56
2022/06/08 04:00:06;;;;;;;;;24.67;22.00;;;;;19.70;100.00;98959.66;6281621;20;3572233;-55
2022/06/08 04:02:35;;;;;;;;;19.67;19.67;;;;;19.58;100.00;98948.19;6280038;20;3571106;-55
2022/06/08 04:05:05;;;;;;;;;24.00;23.00;;;;;19.66;100.00;98955.50;6285736;20;3591923;-53
2022/06/08 04:07:33;;;;;;;;;28.67;25.67;;;;;19.46;100.00;98946.84;6283030;20;3588934;-53
2022/06/08 04:10:03;;;;;;;;;26.00;23.00;;;;;19.50;100.00;98954.50;6280940;20;3585766;-55
2022/06/08 04:12:33;;;;;;;;;23.50;23.50;;;;;19.69;100.00;98955.19;6280406;20;2834729;-56
2022/06/08 04:15:04;;;;;;;;;28.67;24.00;;;;;19.49;100.00;98951.97;6281768;20;3587891;-57
2022/06/08 04:17:33;;;;;;;;;26.00;24.00;;;;;19.68;100.00;98940.75;6284988;20;2835668;-55
2022/06/08 04:20:03;;;;;;;;;23.00;22.33;;;;;19.80;100.00;98943.97;6315579;20;3580426;-51
2022/06/08 04:22:32;;;;;;;;;23.00;23.00;;;;;19.95;100.00;98947.69;6286506;20;3581508;-56
2022/06/08 04:25:02;;;;;;;;;23.00;21.67;;;;;19.85;100.00;98947.03;6286164;20;3582548;-57
2022/06/08 04:27:34;;;;;;;;;23.00;19.00;;;;;19.81;100.00;98945.66;6285687;20;3568981;-54
2022/06/08 04:30:04;;;;;;;;;21.00;21.00;;;;;19.90;100.00;98946.50;6284619;20;3577295;-53
2022/06/08 04:32:33;;;;;;;;;25.33;22.33;;;;;20.19;100.00;98948.66;6282601;20;3587711;-56
2022/06/08 04:35:03;;;;;;;;;20.33;20.33;;;;;20.24;100.00;98953.59;6317362;20;3574305;-55
2022/06/08 04:37:32;;;;;;;;;25.67;24.00;;;;;20.14;100.00;98951.06;6283828;20;3591896;-59
2022/06/08 04:40:01;;;;;;;;;21.67;19.33;;;;;20.32;100.00;98954.41;6289792;20;3574204;-59
2022/06/08 04:42:29;;;;;;;;;21.33;21.33;;;;;20.47;100.00;98956.44;6291202;20;3585657;-59
2022/06/08 04:45:00;;;;;;;;;21.67;19.67;;;;;20.35;100.00;98958.66;6288740;20;3581602;-58
2022/06/08 04:47:28;;;;;;;;;19.33;19.33;;;;;20.56;100.00;98955.38;6321187;20;3579458;-59
2022/06/08 04:49:59;;;;;;;;;23.00;22.00;;;;;20.67;100.00;98956.88;6286972;20;3583582;-58
2022/06/08 04:52:28;;;;;;;;;20.33;18.33;;;;;20.66;100.00;98947.84;6323589;20;3572210;-59
2022/06/08 04:54:56;;;;;;;;;17.00;15.00;;;;;20.47;100.00;98940.06;6292512;20;3541871;-58
2022/06/08 04:57:26;;;;;;;;;20.00;20.00;;;;;20.48;100.00;98947.22;6323410;20;3558555;-59
2022/06/08 04:59:54;;;;;;;;;20.00;19.50;;;;;20.55;100.00;98945.53;6286108;20;2839891;-59
2022/06/08 05:02:48;;;;;;;;;21.00;21.00;;;;;20.77;100.00;98952.94;6290079;20;3566938;-59
2022/06/08 05:05:38;;;;;;;;;20.00;19.50;;;;;21.15;100.00;98958.50;6288279;20;2832570;-59
2022/06/08 05:08:08;;;;;;;;;18.00;18.00;;;;;21.09;99.35;98956.50;6291673;20;3577392;-57
2022/06/08 05:10:38;;;;;;;;;19.50;19.50;;;;;21.18;98.93;98954.56;6284913;20;2832666;-57
2022/06/08 05:13:10;;;;;;;;;19.00;19.00;;;;;21.44;98.10;98965.19;6288313;20;2839900;-57
2022/06/08 05:15:42;;;;;;;;;18.00;16.67;;;;;21.58;97.76;98967.09;6322702;20;3573310;-58
2022/06/08 05:18:22;;;;;;;;;23.33;20.00;;;;;21.61;96.88;98964.00;6291007;20;3580560;-59
2022/06/08 05:20:51;;;;;;;;;16.50;16.00;;;;;21.96;95.74;98969.88;6285275;20;2830481;-58
2022/06/08 05:23:30;;;;;;;;;18.00;17.00;;;;;21.95;95.23;98968.16;6293756;20;3573169;-59
2022/06/08 05:26:02;;;;;;;;;24.00;20.00;;;;;21.78;95.65;98972.94;6287546;20;2843126;-60
2022/06/08 05:28:31;;;;;;;;;19.33;18.67;;;;;21.78;94.01;98962.00;6322745;20;3572159;-60
2022/06/08 05:31:01;;;;;;;;;21.67;19.00;;;;;21.97;94.68;98965.25;6291117;20;3559640;-59
2022/06/08 05:33:31;;;;;;;;;18.33;18.33;;;;;22.12;94.43;98958.78;6319739;20;3571101;-60
2022/06/08 05:35:59;;;;;;;;;19.00;19.00;;;;;22.37;92.02;98966.72;6290041;20;3568091;-60
2022/06/08 05:38:28;;;;;;;;;17.00;16.00;;;;;22.17;93.23;98976.47;6287272;20;3571103;-60
2022/06/08 05:40:57;;;;;;;;;13.33;13.33;;;;;22.03;93.22;98970.81;6287599;20;2491948;-59
2022/06/08 05:43:26;;;;;;;;;16.33;16.33;;;;;22.18;93.00;98968.09;6321303;20;3564909;-60
2022/06/08 05:45:55;;;;;;;;;18.33;17.33;;;;;22.00;92.82;98973.91;6286907;20;3574249;-60
2022/06/08 05:48:24;;;;;;;;;18.33;16.33;;;;;21.80;94.53;98964.53;6286870;20;3561701;-59
2022/06/08 05:50:52;;;;;;;;;22.00;20.00;;;;;21.64;95.23;98965.53;6287578;20;3576331;-60
2022/06/08 05:53:22;;;;;;;;;24.33;22.00;;;;;21.26;96.54;98969.00;6286386;20;2842966;-59
2022/06/08 05:55:51;;;;;;;;;20.33;20.33;;;;;21.37;96.06;98964.16;6319302;20;3589862;-59
2022/06/08 05:58:20;;;;;;;;;21.33;20.00;;;;;21.51;94.96;98977.06;6290399;20;3573275;-59
2022/06/08 06:00:49;;;;;;;;;21.67;21.33;;;;;21.25;98.85;98971.94;6286951;20;3577338;-59
2022/06/08 06:03:19;;;;;;;;;19.67;19.67;;;;;21.65;97.46;98979.00;6292277;20;3557623;-59
2022/06/08 06:05:48;;;;;;;;;22.67;21.00;;;;;22.12;94.73;98979.78;6286717;20;3575289;-60
2022/06/08 06:08:17;;;;;;;;;24.00;21.00;;;;;22.31;91.78;98972.97;6288442;20;3578376;-60
2022/06/08 06:10:48;;;;;;;;;18.67;18.33;;;;;22.17;92.10;98981.94;6290718;20;3576319;-59
2022/06/08 06:13:20;;;;;;;;;22.33;22.33;;;;;21.91;94.21;98977.78;6289861;20;3579384;-59
2022/06/08 06:15:49;;;;;;;;;24.00;23.00;;;;;22.24;95.52;98982.94;6290377;20;3589954;-58
2022/06/08 06:18:18;;;;;;;;;20.00;20.00;;;;;22.37;92.35;98977.69;6288638;20;3580500;-59
2022/06/08 06:20:48;;;;;;;;;22.67;21.33;;;;;22.17;92.80;98977.34;6288192;20;3560650;-60
2022/06/08 06:23:18;;;;;;;;;22.33;21.67;;;;;22.23;94.58;98981.25;6284511;20;3585736;-59
2022/06/08 06:25:46;;;;;;;;;24.67;21.67;;;;;23.32;88.84;98976.81;6321395;20;3584600;-60
2022/06/08 06:28:15;;;;;;;;;22.00;20.67;;;;;23.80;85.03;98979.00;6285773;20;3582531;-60
2022/06/08 06:30:44;;;;;;;;;20.33;20.33;;;;;23.87;85.08;98983.50;6289251;20;3576260;-60
2022/06/08 06:33:15;;;;;;;;;20.00;19.00;;;;;24.54;80.77;98981.31;6288025;20;3574283;-60
2022/06/08 06:35:44;;;;;;;;;22.00;21.33;;;;;24.60;81.52;98974.16;6291890;20;3582576;-60
2022/06/08 06:38:12;;;;;;;;;19.00;15.50;;;;;24.59;81.75;98984.25;6287695;20;2827357;-60
2022/06/08 06:40:41;;;;;;;;;26.33;21.67;;;;;25.22;79.21;98983.31;6288633;20;3588804;-62
2022/06/08 06:43:11;;;;;;;;;19.00;17.67;;;;;25.01;80.46;98971.38;6290526;20;3562760;-60
2022/06/08 06:45:40;;;;;;;;;19.00;18.00;;;;;25.49;78.10;98981.47;6286836;20;3572123;-60
2022/06/08 06:48:09;;;;;;;;;18.67;18.67;;;;;26.30;75.76;98981.34;6289496;20;3555571;-60
2022/06/08 06:50:38;;;;;;;;;18.67;18.33;;;;;25.46;75.45;98969.03;6285883;20;3572146;-60
2022/06/08 06:53:06;;;;;;;;;17.00;17.00;;;;;25.38;76.73;98975.56;6287102;20;2829436;-59
2022/06/08 06:55:36;;;;;;;;;19.00;17.33;;;;;25.04;77.30;98965.50;6285941;20;3559714;-59
2022/06/08 06:58:06;;;;;;;;;19.00;18.00;;;;;24.97;78.80;98964.63;6285732;20;2841957;-59
2022/06/08 07:00:35;;;;;;;;;20.00;18.33;;;;;25.92;77.26;98971.00;6312870;20;3565874;-59
2022/06/08 07:03:04;;;;;;;;;18.00;17.67;;;;;26.66;73.46;98961.63;6286495;20;3572120;-60
2022/06/08 07:05:35;;;;;;;;;17.00;17.00;;;;;26.69;73.35;98957.59;6288213;20;3571070;-59
2022/06/08 07:08:05;;;;;;;;;19.33;19.33;;;;;26.92;72.57;98957.91;6287001;20;3549225;-60
2022/06/08 07:10:34;;;;;;;;;20.00;20.00;;;;;26.96;71.15;98957.47;6287359;20;3577322;-59
2022/06/08 07:13:04;;;;;;;;;15.00;15.00;;;;;27.81;68.42;98957.28;6287530;20;2810750;-60
2022/06/08 07:15:33;;;;;;;;;17.67;16.00;;;;;27.53;68.85;98961.25;6287871;20;3569007;-58
2022/06/08 07:18:02;;;;;;;;;19.00;18.00;;;;;26.44;69.21;98958.25;6289832;20;3554417;-58
2022/06/08 07:20:30;;;;;;;;;19.00;17.33;;;;;25.74;71.65;98954.25;6285893;20;3564904;-57
2022/06/08 07:22:59;;;;;;;;;16.00;16.00;;;;;25.82;73.65;98956.78;6286188;20;2831527;-58
2022/06/08 07:25:28;;;;;;;;;17.67;17.67;;;;;25.84;70.92;98955.56;6288165;20;3561802;-60
2022/06/08 07:27:56;;;;;;;;;14.00;14.00;;;;;25.73;71.11;98952.56;6281765;20;2811724;-60
2022/06/08 07:30:25;;;;;;;;;18.00;15.33;;;;;25.99;71.82;98951.75;6285005;20;2483587;-59
2022/06/08 07:32:54;;;;;;;;;18.00;18.00;;;;;26.03;71.92;98948.34;6322243;20;3560636;-59
2022/06/08 07:35:22;;;;;;;;;13.67;13.67;;;;;26.58;66.93;98950.84;6286734;20;2483642;-59
2022/06/08 07:37:51;;;;;;;;;16.00;16.00;;;;;26.98;65.83;98950.69;6317537;20;3557545;-59
2022/06/08 07:40:21;;;;;;;;;15.50;15.50;;;;;26.35;65.11;98948.53;6283081;20;2823282;-59
2022/06/08 07:42:49;;;;;;;;;15.00;15.00;;;;;27.79;64.55;98950.00;6283403;20;2812804;-59
2022/06/08 07:45:18;;;;;;;;;12.67;12.67;;;;;28.36;62.18;98957.41;6284024;20;3526274;-59
2022/06/08 07:50:34;;;;;;;;;17.50;16.00;;;;;27.17;61.07;98953.56;6284955;20;2827323;-59
2022/06/08 07:53:02;;;;;;;;;14.33;14.33;;;;;28.45;58.92;98956.06;6286481;20;2483563;-58
2022/06/08 07:55:31;;;;;;;;;15.33;13.67;;;;;29.09;55.64;98957.44;6318373;20;2483618;-59
2022/06/08 07:58:02;;;;;;;;;14.33;14.33;;;;;28.93;56.66;98952.53;6316314;20;3537771;-59
2022/06/08 08:00:31;;;;;;;;;14.00;14.00;;;;;28.06;57.10;98944.28;6287334;20;3532612;-59
2022/06/08 08:02:59;;;;;;;;;14.00;13.00;;;;;27.13;57.18;98953.16;6321844;20;3527361;-59
2022/06/08 08:05:28;;;;;;;;;12.67;12.67;;;;;28.22;53.61;98949.22;6315815;20;2483575;-59
2022/06/08 08:07:57;;;;;;;;;9.67;9.67;;;;;28.08;51.16;98957.88;6316596;20;2768162;-60
2022/06/08 08:10:26;;;;;;;;;12.00;12.00;;;;;28.18;53.25;98956.28;6314796;20;3496098;-59
2022/06/08 08:12:55;;;;;;;;;10.00;10.00;;;;;27.98;56.54;98947.34;6317117;20;3512743;-59
2022/06/08 08:15:26;;;;;;;;;13.00;12.00;;;;;27.75;55.74;98950.69;6288284;20;2798220;-59
2022/06/08 08:17:55;;;;;;;;;10.33;10.33;;;;;27.78;54.63;98956.59;6295297;20;2786734;-59
2022/06/08 08:20:28;;;;;;;;;10.00;10.00;;;;;27.07;53.79;98954.06;6317570;20;3504389;-59
2022/06/08 08:22:58;;;;;;;;;11.00;11.00;;;;;26.91;55.46;98956.25;6322609;20;3526365;-59
2022/06/08 08:25:29;;;;;;;;;12.00;11.00;;;;;26.72;57.89;98951.63;6289284;20;3543457;-59
2022/06/08 08:27:59;;;;;;;;;10.00;10.00;;;;;26.57;54.11;98954.66;6289002;20;3518985;-59
2022/06/08 08:30:31;;;;;;;;;13.33;12.33;;;;;26.67;58.23;98948.69;6294918;20;2797217;-59
2022/06/08 08:33:00;;;;;;;;;12.00;11.00;;;;;26.59;56.80;98944.25;6317656;20;3515896;-60
2022/06/08 08:35:29;;;;;;;;;12.33;12.33;;;;;27.87;56.05;98937.03;6288579;20;3524195;-59
2022/06/08 08:38:00;;;;;;;;;12.00;11.00;;;;;28.42;52.56;98937.16;6293893;20;3514147;-59
2022/06/08 08:40:54;;;;;;;;;13.00;13.00;;;;;28.99;53.27;98940.56;6319857;20;3519021;-59
2022/06/08 08:43:34;;;;;;;;;11.33;11.33;;;;;28.05;55.29;98944.53;6293994;20;3529448;-59
2022/06/08 08:46:31;;;;;;;;;12.67;12.67;;;;;27.64;54.59;98951.41;6319471;20;2483577;-59
2022/06/08 08:49:23;;;;;;;;;14.00;11.00;;;;;27.74;53.92;98949.00;6320214;20;2483648;-60
2022/06/08 08:52:01;;;;;;;;;11.00;11.00;;;;;28.57;50.00;98942.31;6319090;20;3519037;-59
2022/06/08 08:54:34;;;;;;;;;13.00;12.00;;;;;28.95;50.01;98938.50;6288879;20;2810727;-59
2022/06/08 08:57:23;;;;;;;;;11.67;11.67;;;;;28.35;54.38;98945.50;6291248;20;3533554;-59
2022/06/08 08:59:52;;;;;;;;;11.00;11.00;;;;;27.44;53.40;98941.38;6292396;20;2789886;-59
2022/06/08 09:05:22;;;;;;;;;11.33;11.33;;;;;27.97;54.12;98934.63;6285355;20;3534639;-59
2022/06/08 09:07:50;;;;;;;;;11.33;10.00;;;;;28.58;53.02;98941.28;6320950;20;3522151;-59
2022/06/08 09:10:24;;;;;;;;;10.33;10.33;;;;;27.73;51.10;98926.09;6316912;20;3511801;-59
2022/06/08 09:12:56;;;;;;;;;10.00;10.00;;;;;27.71;52.20;98928.22;6325284;20;2774259;-59
2022/06/08 09:15:45;;;;;;;;;10.00;10.00;;;;;28.28;52.12;98932.84;6321217;20;2666950;-60
2022/06/08 09:18:38;;;;;;;;;10.00;10.00;;;;;28.03;49.94;98930.97;6318475;20;2781538;-59
2022/06/08 09:21:34;;;;;;;;;11.50;10.50;;;;;27.49;48.87;98929.66;6319524;20;2789920;-60
2022/06/08 09:24:39;;;;;;;;;9.33;9.00;;;;;27.25;55.58;98929.41;6324913;20;2479421;-60
2022/06/08 09:27:35;;;;;;;;;10.00;10.00;;;;;27.30;55.37;98926.78;6316974;20;3514202;-59
2022/06/08 09:30:29;;;;;;;;;12.33;10.67;;;;;26.98;52.08;98928.66;6322998;20;2793991;-59
2022/06/08 09:33:35;;;;;;;;;9.33;9.33;;;;;26.97;50.52;98932.47;6326262;20;2758645;-59
2022/06/08 09:36:26;;;;;;;;;9.33;9.33;;;;;27.03;53.85;98925.25;6318826;20;2763026;-59
2022/06/08 09:38:55;;;;;;;;;9.67;9.67;;;;;26.66;53.13;98920.31;6320086;20;2775757;-45
2022/06/08 09:41:44;;;;;;;;;10.00;10.00;;;;;26.63;53.68;98926.25;6317213;20;3504426;-47
2022/06/08 09:44:31;;;;;;;;;9.00;9.00;;;;;27.18;52.32;98928.59;6318126;20;2749251;-45
2022/06/08 09:54:21;;;;;;;;;9.33;9.33;;;;;27.43;53.58;98920.34;6310503;20;3482543;-46
2022/06/08 09:57:48;;;;;;;;;10.67;10.00;;;;;28.08;51.53;98916.47;6316955;20;3507548;-46
2022/06/08 10:00:52;;;;;;;;;9.00;9.00;;;;;27.90;53.26;98909.84;6313963;20;2746167;-47
2022/06/08 10:04:27;;;;;;;;;15.00;12.00;;;;;28.49;49.76;98913.13;6304865;20;3518535;-47
2022/06/08 10:07:47;;;;;;;;;14.00;11.00;;;;;28.07;50.52;98910.13;6324372;20;3535661;-47
2022/06/08 10:10:52;;;;;;;;;10.33;10.33;;;;;28.09;51.86;98899.69;6318347;20;2483598;-49
2022/06/08 10:14:33;;;;;;;;;10.33;8.67;;;;;29.15;49.35;98899.53;6313255;20;3479555;-50
2022/06/08 10:17:29;;;;;;;;;8.67;8.67;;;;;29.13;51.02;98901.72;6319842;20;2747149;-47
2022/06/08 10:20:38;;;;;;;;;8.00;8.00;;;;;28.34;46.41;98890.53;6319044;20;2730468;-45
2022/06/08 10:23:45;;;;;;;;;8.00;8.00;;;;;27.98;50.82;98893.00;6315613;20;3465879;-47
2022/06/08 10:26:37;;;;;;;;;7.67;7.00;;;;;28.04;49.29;98896.75;6318022;20;2748599;-46
2022/06/08 10:29:53;;;;;;;;;7.67;7.67;;;;;28.29;50.37;98896.72;6318438;20;2749250;-47
2022/06/08 10:32:33;;;;;;;;;10.33;10.33;;;;;28.29;52.94;98884.84;6321766;20;2801359;-47
2022/06/08 10:35:29;;;;;;;;;6.00;6.00;;;;;28.70;48.90;98892.47;6327420;20;2739866;-46
2022/06/08 10:37:59;;;;;;;;;9.00;9.00;;;;;28.30;51.85;98884.59;6319277;20;2646098;-46
2022/06/08 10:40:48;;;;;;;;;10.00;10.00;;;;;28.52;49.87;98889.72;6313154;20;2796200;-46
2022/06/08 10:43:26;;;;;;;;;10.00;8.67;;;;;28.48;47.65;98883.78;6323402;20;2777418;-47
2022/06/08 10:46:04;;;;;;;;;6.80;5.80;;;;;29.04;49.31;98888.22;6343461;20;2746205;-46
2022/06/08 10:48:49;;;;;;;;;10.00;10.00;;;;;29.60;48.18;98879.72;6284046;20;2790055;-45
2022/06/08 10:51:18;;;;;;;;;10.67;9.33;;;;;29.71;47.35;98878.94;6313204;20;2779437;-45
2022/06/08 10:56:59;;;;;;;;;12.00;9.33;;;;;28.74;47.04;98866.06;6310807;20;3499353;-49
2022/06/08 10:59:30;;;;;;;;;12.67;10.33;;;;;30.11;44.05;98881.81;6321006;20;2786840;-47
2022/06/08 11:02:11;;;;;;;;;9.00;9.00;;;;;30.12;44.34;98877.13;6317666;20;2746091;-46
2022/06/08 11:05:05;;;;;;;;;9.67;9.67;;;;;30.02;46.16;98871.34;6315605;20;3494360;-46
2022/06/08 11:08:13;;;;;;;;;11.00;10.00;;;;;28.67;47.15;98857.00;6313963;20;2783731;-47
2022/06/08 11:10:45;;;;;;;;;11.00;11.00;;;;;29.07;48.09;98848.22;6310390;20;3534702;-46
2022/06/08 11:13:25;;;;;;;;;10.00;9.00;;;;;30.31;47.24;98853.78;6285618;20;2775315;-46
2022/06/08 11:15:55;;;;;;;;;10.33;10.33;;;;;30.87;45.05;98845.00;6316109;20;2787828;-45
2022/06/08 11:18:47;;;;;;;;;11.00;9.00;;;;;29.36;46.62;98835.44;6314252;20;3489809;-49
2022/06/08 11:21:37;;;;;;;;;10.33;9.00;;;;;29.67;47.35;98842.56;6314308;20;2761704;-47
2022/06/08 11:24:39;;;;;;;;;11.00;9.67;;;;;29.57;44.64;98835.91;6314785;20;2781498;-46
2022/06/08 11:27:10;;;;;;;;;8.67;8.67;;;;;29.85;46.58;98835.25;6313487;20;3467966;-47
2022/06/08 11:29:48;;;;;;;;;9.33;8.33;;;;;29.81;45.40;98825.75;6314710;20;2785689;-50
2022/06/08 11:32:34;;;;;;;;;9.33;9.00;;;;;29.94;44.45;98826.34;6205039;20;2762739;-45
2022/06/08 11:36:18;;;;;;;;;6.00;6.00;;;;;29.64;45.62;98828.34;6319313;20;2739921;-47
2022/06/08 11:39:05;;;;;;;;;8.67;7.33;;;;;29.95;42.57;98816.94;6315806;20;2743026;-45
2022/06/08 11:41:39;;;;;;;;;11.00;10.00;;;;;29.98;42.98;98810.94;6313234;20;2675252;-47
2022/06/08 11:44:19;;;;;;;;;7.67;7.67;;;;;30.31;42.94;98815.00;6327598;20;2737774;-47
2022/06/08 11:47:10;;;;;;;;;10.00;8.33;;;;;29.74;41.29;98809.25;6320028;20;2763875;-45
2022/06/08 11:49:54;;;;;;;;;10.00;10.00;;;;;30.52;44.73;98802.44;6319720;20;3514816;-49
2022/06/08 11:52:26;;;;;;;;;8.67;8.67;;;;;30.74;40.98;98801.75;6319742;20;2744021;-46
2022/06/08 11:55:23;;;;;;;;;8.67;8.33;;;;;30.38;43.06;98790.78;6317429;20;2752453;-52
2022/06/08 11:58:04;;;;;;;;;8.00;8.00;;;;;30.17;41.92;98791.41;6327039;20;2750290;-55
2022/06/08 12:00:51;;;;;;;;;8.33;7.67;;;;;29.72;41.02;98795.66;6317978;20;2744178;-52
2022/06/08 12:03:44;;;;;;;;;10.00;10.00;;;;;30.20;40.46;98790.91;6314201;20;3504404;-56
2022/06/08 12:06:13;;;;;;;;;6.67;6.67;;;;;29.92;39.40;98778.69;6318393;20;2748238;-51
2022/06/08 12:08:49;;;;;;;;;8.67;8.67;;;;;30.23;39.82;98782.16;6316409;20;2748318;-53
2022/06/08 12:11:25;;;;;;;;;10.00;9.00;;;;;30.08;41.96;98781.81;6314548;20;2773195;-50
2022/06/08 12:14:17;;;;;;;;;7.67;7.67;;;;;29.42;39.97;98768.09;6318411;20;2749235;-53